Time;durP1;ratioP1;P1;durP2;ratioP2;P2;SDS_P1;SDS_P2;PMS_P1;PMS_P2;Temp;Humidity;BMP_temperature;BMP_pressure;BME280_temperature;BME280_humidity;BME280_pressure;Samples;Min_cycle;Max_cycle;Signal;HPM_P1;HPM_P2
2022/05/01 00:01:30;;;;;;;65.38;49.42;;;16.70;56.90;;;;;;4914561;28;95203;-67
2022/05/01 00:03:55;;;;;;;64.60;49.00;;;16.60;56.80;;;;;;4914582;28;96052;-67
2022/05/01 00:06:21;;;;;;;65.72;49.42;;;16.60;56.80;;;;;;4918839;28;95550;-67
2022/05/01 00:08:47;;;;;;;64.57;48.95;;;16.60;56.80;;;;;;4921586;28;95144;-68
2022/05/01 00:11:13;;;;;;;65.40;49.33;;;16.60;56.70;;;;;;4924739;28;95970;-67
2022/05/01 00:13:43;;;;;;;66.13;49.17;;;16.60;56.80;;;;;;4926002;28;96860;-68
2022/05/01 00:16:09;;;;;;;64.53;49.17;;;16.60;56.90;;;;;;4906856;28;97318;-67
2022/05/01 00:18:35;;;;;;;65.07;49.03;;;16.60;56.80;;;;;;4915232;28;100874;-67
2022/05/01 00:21:01;;;;;;;66.47;49.40;;;16.50;56.80;;;;;;4922791;28;96034;-68
2022/05/01 00:23:27;;;;;;;64.70;49.13;;;16.50;56.90;;;;;;4919109;28;94702;-67
2022/05/01 00:25:53;;;;;;;65.53;49.25;;;16.60;56.90;;;;;;4922158;28;100234;-67
2022/05/01 00:28:18;;;;;;;65.03;49.42;;;16.60;56.90;;;;;;4903690;28;96270;-67
2022/05/01 00:30:44;;;;;;;64.43;48.90;;;16.50;56.90;;;;;;4912010;28;95672;-67
2022/05/01 00:38:38;;;;;;;64.57;49.00;;;16.50;56.90;;;;;;4919414;28;95352;-67
2022/05/01 00:41:07;;;;;;;65.45;48.90;;;16.50;57.10;;;;;;4920137;28;97181;-67
2022/05/01 00:43:33;;;;;;;65.60;49.25;;;16.50;57.00;;;;;;4923528;28;95974;-67
2022/05/01 00:45:59;;;;;;;64.88;49.42;;;16.40;56.90;;;;;;4920931;28;97023;-67
2022/05/01 00:48:25;;;;;;;64.85;49.28;;;16.40;57.40;;;;;;4917360;28;96044;-67
2022/05/01 00:50:52;;;;;;;64.65;49.03;;;16.40;56.80;;;;;;4909225;28;96134;-67
2022/05/01 00:53:18;;;;;;;64.75;49.00;;;16.40;56.90;;;;;;4918939;28;96242;-67
2022/05/01 00:55:45;;;;;;;64.55;48.88;;;16.40;57.00;;;;;;4927585;28;95934;-67
2022/05/01 00:58:11;;;;;;;65.75;49.38;;;16.40;57.10;;;;;;4913480;28;95484;-67
2022/05/01 01:00:36;;;;;;;65.05;49.20;;;16.40;57.00;;;;;;4920289;28;97873;-67
2022/05/01 01:03:02;;;;;;;66.78;49.50;;;16.40;57.10;;;;;;4908288;28;97329;-67
2022/05/01 01:05:28;;;;;;;65.70;49.70;;;16.40;57.10;;;;;;4912613;28;97446;-67
2022/05/01 01:07:54;;;;;;;64.75;49.47;;;16.40;56.80;;;;;;4915456;28;101421;-67
2022/05/01 01:10:20;;;;;;;64.25;49.30;;;16.30;57.00;;;;;;4914776;28;95541;-67
2022/05/01 01:12:56;;;;;;;65.05;49.60;;;16.30;57.00;;;;;;4917782;28;95320;-67
2022/05/01 01:15:30;;;;;;;64.50;49.25;;;16.30;56.90;;;;;;4919634;28;95214;-67
2022/05/01 01:17:56;;;;;;;64.63;49.40;;;16.30;57.00;;;;;;4918276;28;100016;-67
2022/05/01 01:20:23;;;;;;;65.15;49.45;;;16.30;57.10;;;;;;4919311;28;95787;-67
2022/05/01 01:22:51;;;;;;;64.80;49.08;;;16.30;57.10;;;;;;4914123;28;94331;-67
2022/05/01 01:25:26;;;;;;;64.60;48.95;;;16.30;57.10;;;;;;4918522;28;99390;-68
2022/05/01 01:27:56;;;;;;;64.43;49.20;;;16.30;57.10;;;;;;4915461;28;97687;-67
2022/05/01 01:33:06;;;;;;;64.53;48.97;;;16.20;57.00;;;;;;4927123;28;96824;-68
2022/05/01 01:35:37;;;;;;;64.53;49.08;;;16.20;57.00;;;;;;4924912;28;95517;-67
2022/05/01 01:38:02;;;;;;;63.97;48.90;;;16.30;57.10;;;;;;4909352;28;95628;-67
2022/05/01 01:40:38;;;;;;;64.38;49.25;;;16.20;57.00;;;;;;4914002;28;100013;-67
2022/05/01 01:43:05;;;;;;;64.45;49.10;;;16.20;56.90;;;;;;4920390;28;95961;-67
2022/05/01 01:45:31;;;;;;;64.43;49.13;;;16.20;56.90;;;;;;4912054;28;98205;-67
2022/05/01 01:48:11;;;;;;;64.03;49.22;;;16.20;57.00;;;;;;4907812;28;99449;-67
2022/05/01 01:50:37;;;;;;;65.30;49.03;;;16.20;57.10;;;;;;4915664;28;95962;-69
2022/05/01 01:53:03;;;;;;;65.53;49.45;;;16.20;57.10;;;;;;4921932;28;97102;-68
2022/05/01 01:55:35;;;;;;;65.72;49.35;;;16.20;56.90;;;;;;4920458;28;96772;-67
2022/05/01 01:58:01;;;;;;;65.03;49.00;;;16.20;56.90;;;;;;4921452;28;96075;-67
2022/05/01 02:00:27;;;;;;;63.78;48.92;;;16.10;57.00;;;;;;4918961;28;97407;-67
2022/05/01 02:03:00;;;;;;;66.57;49.53;;;16.20;57.10;;;;;;4923873;28;96204;-67
2022/05/01 02:05:27;;;;;;;64.40;49.00;;;16.10;57.00;;;;;;4920761;28;95661;-67
2022/05/01 02:07:55;;;;;;;63.53;48.92;;;16.10;57.10;;;;;;4913935;28;97274;-67
2022/05/01 02:10:21;;;;;;;64.20;49.15;;;16.10;57.00;;;;;;4916422;28;95818;-67
2022/05/01 02:12:47;;;;;;;63.90;48.63;;;16.10;57.10;;;;;;4928812;28;95427;-69
2022/05/01 02:15:13;;;;;;;65.20;49.25;;;16.10;57.20;;;;;;4923647;28;96950;-67
2022/05/01 02:17:39;;;;;;;65.65;49.63;;;16.10;57.00;;;;;;4916779;28;95303;-67
2022/05/01 02:20:06;;;;;;;64.43;49.50;;;16.10;57.00;;;;;;4917037;28;99525;-66
2022/05/01 02:22:32;;;;;;;64.15;48.92;;;16.10;57.20;;;;;;4920764;28;95276;-67
2022/05/01 02:24:57;;;;;;;63.83;49.35;;;16.10;57.20;;;;;;4913713;28;96112;-67
2022/05/01 02:27:23;;;;;;;64.45;49.47;;;16.00;56.90;;;;;;4918583;28;94983;-67
2022/05/01 02:29:48;;;;;;;64.75;49.15;;;16.10;57.10;;;;;;4920699;28;98355;-68
2022/05/01 02:32:14;;;;;;;65.25;48.80;;;16.00;57.10;;;;;;4917558;28;96643;-67
2022/05/01 02:34:40;;;;;;;63.67;49.22;;;16.00;57.20;;;;;;4919267;28;97027;-67
2022/05/01 02:37:06;;;;;;;64.50;49.28;;;16.00;57.00;;;;;;4914701;28;95545;-68
2022/05/01 02:39:33;;;;;;;64.68;49.42;;;16.00;57.20;;;;;;4911389;28;95508;-68
2022/05/01 02:41:59;;;;;;;64.55;49.22;;;16.00;57.10;;;;;;4911353;28;96322;-67
2022/05/01 02:44:24;;;;;;;65.07;49.35;;;16.00;57.10;;;;;;4912021;28;96407;-67
2022/05/01 02:46:50;;;;;;;64.60;49.25;;;16.00;57.10;;;;;;4914596;28;96538;-67
2022/05/01 02:49:16;;;;;;;63.70;49.08;;;15.90;57.10;;;;;;4917578;28;96324;-68
2022/05/01 02:51:42;;;;;;;65.55;50.10;;;15.90;57.10;;;;;;4903335;28;96130;-67
2022/05/01 02:54:08;;;;;;;65.43;49.25;;;15.90;57.00;;;;;;4906525;28;97010;-67
2022/05/01 02:56:34;;;;;;;65.00;49.47;;;15.90;57.10;;;;;;4921278;28;95614;-67
2022/05/01 02:59:00;;;;;;;64.75;49.35;;;15.90;57.10;;;;;;4918162;28;95478;-67
2022/05/01 03:01:29;;;;;;;66.25;49.85;;;15.90;57.10;;;;;;4916383;28;97313;-67
2022/05/01 03:03:55;;;;;;;64.18;49.42;;;15.90;57.20;;;;;;4922700;28;99412;-67
2022/05/01 03:06:21;;;;;;;63.63;49.03;;;15.90;57.10;;;;;;4912487;28;97449;-67
2022/05/01 03:08:47;;;;;;;64.57;48.95;;;15.90;57.10;;;;;;4918588;28;101266;-67
2022/05/01 03:11:13;;;;;;;64.53;49.22;;;15.90;57.30;;;;;;4916673;28;95312;-67
2022/05/01 03:13:38;;;;;;;63.75;49.05;;;15.90;57.30;;;;;;4920057;28;95689;-67
2022/05/01 03:16:04;;;;;;;64.20;49.33;;;15.90;57.20;;;;;;4919113;28;95301;-67
2022/05/01 03:23:58;;;;;;;63.38;49.13;;;15.80;57.20;;;;;;4922960;28;95421;-67
2022/05/01 03:26:25;;;;;;;65.75;49.58;;;15.80;57.10;;;;;;4912040;28;94784;-67
2022/05/01 03:28:51;;;;;;;63.50;49.13;;;15.80;57.00;;;;;;4917905;28;95343;-67
2022/05/01 03:31:17;;;;;;;64.00;49.03;;;15.80;57.10;;;;;;4908742;28;97487;-67
2022/05/01 03:33:44;;;;;;;65.53;49.53;;;15.80;57.10;;;;;;4906785;28;100652;-68
2022/05/01 03:36:11;;;;;;;64.40;49.45;;;15.80;57.20;;;;;;4908223;28;96205;-67
2022/05/01 03:38:38;;;;;;;64.05;49.20;;;15.80;57.00;;;;;;4913830;28;95834;-67
2022/05/01 03:41:05;;;;;;;64.18;49.60;;;15.70;57.10;;;;;;4912011;28;96270;-67
2022/05/01 03:43:35;;;;;;;64.60;49.50;;;15.70;57.10;;;;;;4908484;28;95414;-67
2022/05/01 03:46:02;;;;;;;63.15;48.88;;;15.70;57.10;;;;;;4915965;28;96004;-67
2022/05/01 03:48:28;;;;;;;65.75;49.53;;;15.70;57.00;;;;;;4922293;28;95423;-68
2022/05/01 03:50:54;;;;;;;63.58;49.13;;;15.70;57.10;;;;;;4910102;28;95213;-67
2022/05/01 03:53:21;;;;;;;64.53;49.78;;;15.70;57.20;;;;;;4921742;28;95381;-67
2022/05/01 03:55:47;;;;;;;63.47;48.78;;;15.70;57.10;;;;;;4913557;28;98502;-67
2022/05/01 03:58:13;;;;;;;63.50;49.78;;;15.70;57.30;;;;;;4916523;28;96509;-67
2022/05/01 04:00:39;;;;;;;63.75;49.25;;;15.70;57.00;;;;;;4916249;28;96767;-67
2022/05/01 04:03:05;;;;;;;65.15;49.30;;;15.70;57.20;;;;;;4917754;28;95519;-67
2022/05/01 04:05:33;;;;;;;64.22;49.72;;;15.70;57.20;;;;;;4917838;28;95934;-67
2022/05/01 04:07:58;;;;;;;63.75;49.40;;;15.60;57.10;;;;;;4920187;28;102961;-68
2022/05/01 04:10:24;;;;;;;63.97;49.25;;;15.60;57.10;;;;;;4915290;28;95797;-67
2022/05/01 04:12:50;;;;;;;64.07;49.25;;;15.60;57.10;;;;;;4914043;28;96852;-67
2022/05/01 04:15:15;;;;;;;63.88;49.55;;;15.60;57.90;;;;;;4914151;28;95929;-67
2022/05/01 04:17:42;;;;;;;64.57;49.60;;;15.60;57.10;;;;;;4915789;28;95320;-67
2022/05/01 04:20:14;;;;;;;63.85;49.13;;;15.60;57.70;;;;;;4918080;28;101061;-67
2022/05/01 04:22:45;;;;;;;63.40;49.17;;;15.60;57.30;;;;;;4909481;28;97057;-68
2022/05/01 04:25:19;;;;;;;63.92;49.28;;;15.60;57.20;;;;;;4919672;28;96910;-68
2022/05/01 04:27:54;;;;;;;64.00;49.00;;;15.60;57.20;;;;;;4927190;28;95592;-68
2022/05/01 04:30:20;;;;;;;64.07;49.15;;;15.60;57.20;;;;;;4924036;28;95151;-67
2022/05/01 04:32:49;;;;;;;64.43;49.25;;;15.60;57.20;;;;;;4910037;28;98201;-67
2022/05/01 04:35:21;;;;;;;63.55;49.13;;;15.50;57.50;;;;;;4928346;28;96167;-67
2022/05/01 04:37:46;;;;;;;;;;;15.50;57.00;;;;;;4920886;28;95206;-67
2022/05/01 04:40:12;;;;;;;63.30;49.13;;;15.50;57.30;;;;;;4911692;28;96655;-68
2022/05/01 04:42:37;;;;;;;63.72;49.45;;;15.50;57.30;;;;;;4906349;28;98297;-68
2022/05/01 04:45:04;;;;;;;63.25;49.05;;;15.50;57.10;;;;;;4917235;28;95735;-68
2022/05/01 04:47:29;;;;;;;63.47;49.70;;;15.50;57.20;;;;;;4915929;28;96618;-67
2022/05/01 04:49:55;;;;;;;63.97;49.05;;;15.50;57.30;;;;;;4919201;28;95413;-67
2022/05/01 04:52:20;;;;;;;63.25;49.13;;;15.50;57.10;;;;;;4920973;28;97232;-67
2022/05/01 04:54:46;;;;;;;63.55;48.97;;;15.50;57.20;;;;;;4920910;28;97624;-67
2022/05/01 04:57:13;;;;;;;63.55;49.35;;;15.50;57.30;;;;;;4922860;28;95696;-67
2022/05/01 04:59:38;;;;;;;64.60;49.63;;;15.50;57.20;;;;;;4911776;28;96093;-68
2022/05/01 05:02:04;;;;;;;63.65;49.53;;;15.50;57.10;;;;;;4914754;28;95486;-67
2022/05/01 05:04:30;;;;;;;65.00;49.53;;;15.50;57.10;;;;;;4913561;28;95975;-65
2022/05/01 05:06:56;;;;;;;64.05;49.30;;;15.50;57.30;;;;;;4909447;28;101044;-67
2022/05/01 05:12:07;;;;;;;63.05;49.10;;;15.50;57.20;;;;;;4908438;28;97558;-67
2022/05/01 05:14:33;;;;;;;63.75;49.35;;;15.50;57.00;;;;;;4913014;28;98854;-67
2022/05/01 05:17:00;;;;;;;63.67;49.55;;;15.50;56.90;;;;;;4919913;28;96171;-67
2022/05/01 05:19:26;;;;;;;66.43;50.00;;;15.50;57.00;;;;;;4928054;28;95242;-67
2022/05/01 05:21:52;;;;;;;63.85;49.45;;;15.50;57.00;;;;;;4919846;28;95000;-67
2022/05/01 05:24:19;;;;;;;66.82;50.10;;;15.50;57.00;;;;;;4916397;28;96195;-68
2022/05/01 05:26:45;;;;;;;63.47;49.15;;;15.50;57.10;;;;;;4916158;28;95629;-67
2022/05/01 05:29:10;;;;;;;66.47;50.08;;;15.50;56.90;;;;;;4917706;28;94692;-67
2022/05/01 05:31:36;;;;;;;63.80;49.63;;;15.50;56.90;;;;;;4918297;28;97045;-67
2022/05/01 05:34:01;;;;;;;63.67;49.53;;;15.50;57.00;;;;;;4923233;28;97389;-67
2022/05/01 05:36:27;;;;;;;66.68;49.90;;;15.50;56.90;;;;;;4915652;28;102246;-67
2022/05/01 05:38:53;;;;;;;64.10;49.60;;;15.50;56.80;;;;;;4917588;28;95413;-68
2022/05/01 05:41:18;;;;;;;64.28;49.63;;;15.50;57.00;;;;;;4916554;28;95226;-67
2022/05/01 05:43:44;;;;;;;65.28;50.65;;;15.50;56.80;;;;;;4913457;28;94882;-67
2022/05/01 05:46:10;;;;;;;65.63;50.33;;;15.50;56.70;;;;;;4920279;28;94933;-68
2022/05/01 05:48:37;;;;;;;63.70;49.38;;;15.50;56.70;;;;;;4919887;28;95889;-68
2022/05/01 05:51:04;;;;;;;63.90;49.70;;;15.50;56.90;;;;;;4915793;28;96678;-67
2022/05/01 05:53:30;;;;;;;65.32;50.15;;;15.50;56.80;;;;;;4915648;28;95821;-67
2022/05/01 05:55:56;;;;;;;65.20;49.50;;;15.50;56.80;;;;;;4922909;28;96360;-67
2022/05/01 05:58:22;;;;;;;66.13;50.10;;;15.50;57.00;;;;;;4919497;28;95687;-68
2022/05/01 06:00:47;;;;;;;65.88;50.25;;;15.50;56.70;;;;;;4916977;28;97953;-67
2022/05/01 06:03:13;;;;;;;64.78;49.95;;;15.50;56.80;;;;;;4908314;28;97028;-67
2022/05/01 06:05:39;;;;;;;65.13;50.20;;;15.50;56.70;;;;;;4912549;28;95773;-68
2022/05/01 06:08:05;;;;;;;64.25;49.65;;;15.50;56.50;;;;;;4906187;28;100413;-67
2022/05/01 06:10:31;;;;;;;67.30;50.22;;;15.50;56.80;;;;;;4913787;28;96447;-69
2022/05/01 06:12:57;;;;;;;66.60;50.20;;;15.50;56.60;;;;;;4913112;28;96367;-70
2022/05/01 06:15:22;;;;;;;66.28;50.55;;;15.50;56.50;;;;;;4911343;28;96199;-69
2022/05/01 06:17:50;;;;;;;65.07;49.97;;;15.50;56.60;;;;;;4913217;28;94478;-68
2022/05/01 06:20:15;;;;;;;64.78;49.90;;;15.50;56.70;;;;;;4914023;28;96073;-68
2022/05/01 06:22:41;;;;;;;64.53;49.28;;;15.60;56.60;;;;;;4913946;28;96698;-67
2022/05/01 06:25:07;;;;;;;68.93;50.25;;;15.60;56.70;;;;;;4911963;28;100351;-67
2022/05/01 06:27:33;;;;;;;65.85;50.05;;;15.60;56.70;;;;;;4920244;28;95339;-67
2022/05/01 06:29:58;;;;;;;65.25;50.30;;;15.60;56.60;;;;;;4925324;28;95710;-67
2022/05/01 06:32:25;;;;;;;65.65;49.65;;;15.60;56.50;;;;;;4916947;28;96685;-68
2022/05/01 06:34:52;;;;;;;65.57;50.70;;;15.60;56.60;;;;;;4916421;28;96009;-70
2022/05/01 06:37:17;;;;;;;65.30;50.10;;;15.60;56.40;;;;;;4913920;28;95071;-69
2022/05/01 06:39:43;;;;;;;66.50;49.97;;;15.60;56.40;;;;;;4919344;28;97246;-69
2022/05/01 06:42:09;;;;;;;65.65;50.53;;;15.60;56.30;;;;;;4920243;28;96791;-67
2022/05/01 06:44:35;;;;;;;67.05;50.00;;;15.60;56.40;;;;;;4918206;28;95125;-67
2022/05/01 06:47:02;;;;;;;67.80;50.85;;;15.70;56.30;;;;;;4921548;28;96136;-67
2022/05/01 06:49:27;;;;;;;67.25;50.50;;;15.70;56.40;;;;;;4916869;28;96983;-68
2022/05/01 06:51:53;;;;;;;65.78;50.42;;;15.70;56.20;;;;;;4913158;28;95900;-67
2022/05/01 06:54:19;;;;;;;67.70;51.10;;;15.70;56.10;;;;;;4908456;28;96195;-67
2022/05/01 06:56:44;;;;;;;65.57;50.50;;;15.70;56.20;;;;;;4920264;28;95144;-68
2022/05/01 06:59:10;;;;;;;65.95;50.33;;;15.70;56.10;;;;;;4910119;28;101592;-67
2022/05/01 07:01:36;;;;;;;65.78;50.28;;;15.80;56.20;;;;;;4909181;28;95684;-70
2022/05/01 07:04:02;;;;;;;67.22;50.88;;;15.80;56.20;;;;;;4908767;28;95673;-69
2022/05/01 07:06:28;;;;;;;67.63;51.03;;;15.70;55.90;;;;;;4916052;28;95316;-67
2022/05/01 07:08:53;;;;;;;66.88;50.22;;;15.80;56.10;;;;;;4911315;28;96806;-67
2022/05/01 07:11:19;;;;;;;66.00;50.63;;;15.80;55.90;;;;;;4918733;28;95755;-67
2022/05/01 07:13:44;;;;;;;65.88;49.78;;;15.80;56.00;;;;;;4914765;28;97095;-68
2022/05/01 07:16:10;;;;;;;67.63;51.00;;;15.80;56.30;;;;;;4914641;28;95026;-68
2022/05/01 07:18:36;;;;;;;66.65;50.35;;;15.80;56.00;;;;;;4909668;28;96888;-68
2022/05/01 07:21:02;;;;;;;66.43;50.03;;;15.80;56.20;;;;;;4913930;28;95731;-68
2022/05/01 07:23:28;;;;;;;66.00;49.92;;;15.80;56.10;;;;;;4916958;28;96277;-68
2022/05/01 07:25:54;;;;;;;67.68;50.95;;;15.90;56.30;;;;;;4913117;28;95015;-68
2022/05/01 07:28:19;;;;;;;68.03;51.17;;;15.90;56.10;;;;;;4909783;28;97145;-68
2022/05/01 07:30:45;;;;;;;66.82;50.72;;;15.90;56.10;;;;;;4921284;28;94829;-68
2022/05/01 07:33:11;;;;;;;67.40;50.85;;;15.90;56.00;;;;;;4919155;28;98991;-68
2022/05/01 07:35:37;;;;;;;66.80;50.53;;;15.90;56.00;;;;;;4914946;28;97626;-68
2022/05/01 07:38:03;;;;;;;67.20;50.45;;;15.90;56.00;;;;;;4916510;28;95991;-68
2022/05/01 07:40:29;;;;;;;66.55;50.42;;;16.00;56.00;;;;;;4915771;28;97330;-68
2022/05/01 07:42:55;;;;;;;67.35;50.47;;;15.90;55.90;;;;;;4914220;28;98836;-68
2022/05/01 07:45:21;;;;;;;69.25;51.00;;;16.00;56.00;;;;;;4922597;28;95633;-68
2022/05/01 07:47:46;;;;;;;67.75;50.55;;;16.00;55.80;;;;;;4912954;28;95294;-68
2022/05/01 07:50:13;;;;;;;67.57;50.63;;;16.00;55.70;;;;;;4898835;28;99293;-68
2022/05/01 07:52:39;;;;;;;67.80;50.70;;;16.00;55.60;;;;;;4909496;28;95094;-68
2022/05/01 07:55:06;;;;;;;68.53;50.35;;;16.00;55.60;;;;;;4918891;28;98476;-68
2022/05/01 07:57:32;;;;;;;68.18;50.90;;;16.10;55.60;;;;;;4917940;28;95489;-68
2022/05/01 07:59:57;;;;;;;68.18;50.80;;;16.10;55.70;;;;;;4916241;28;95331;-67
2022/05/01 08:02:23;;;;;;;68.70;51.00;;;16.10;55.90;;;;;;4911518;28;99064;-67
2022/05/01 08:04:49;;;;;;;68.28;50.75;;;16.10;55.80;;;;;;4915679;28;100713;-67
2022/05/01 08:07:17;;;;;;;69.13;50.55;;;16.20;55.60;;;;;;4909657;28;97135;-67
2022/05/01 08:09:43;;;;;;;70.32;50.42;;;16.20;55.70;;;;;;4912484;28;101675;-68
2022/05/01 08:12:08;;;;;;;70.60;50.83;;;16.20;55.50;;;;;;4912320;28;97650;-68
2022/05/01 08:14:34;;;;;;;70.30;50.60;;;16.30;55.50;;;;;;4909075;28;97223;-68
2022/05/01 08:17:00;;;;;;;70.57;51.33;;;16.30;55.40;;;;;;4907153;28;96170;-69
2022/05/01 08:22:10;;;;;;;70.88;51.45;;;16.40;55.30;;;;;;4914015;28;95026;-67
2022/05/01 08:24:36;;;;;;;69.73;50.93;;;16.40;55.30;;;;;;4912485;28;96140;-67
2022/05/01 08:27:05;;;;;;;69.47;50.97;;;16.40;55.50;;;;;;4906665;28;96972;-67
2022/05/01 08:29:33;;;;;;;69.78;51.33;;;16.50;55.40;;;;;;4919993;28;98837;-67
2022/05/01 08:32:00;;;;;;;69.40;50.90;;;16.50;55.30;;;;;;4916670;28;101143;-69
2022/05/01 08:34:26;;;;;;;72.45;51.13;;;16.50;55.40;;;;;;4914524;28;97086;-67
2022/05/01 08:36:51;;;;;;;69.70;50.88;;;16.60;55.30;;;;;;4915392;28;98094;-68
2022/05/01 08:39:17;;;;;;;68.90;50.78;;;16.60;54.90;;;;;;4911033;28;96779;-68
2022/05/01 08:41:42;;;;;;;70.43;50.80;;;16.60;55.30;;;;;;4918423;28;99747;-69
2022/05/01 08:44:13;;;;;;;72.60;52.17;;;16.70;55.20;;;;;;4910670;28;94927;-67
2022/05/01 08:47:09;;;;;;;73.40;51.63;;;16.70;55.80;;;;;;4904448;28;96178;-69
2022/05/01 08:49:38;;;;;;;73.93;52.42;;;16.70;56.70;;;;;;4909624;28;96219;-69
2022/05/01 08:52:06;;;;;;;73.93;52.03;;;16.80;56.80;;;;;;4903961;28;97143;-69
2022/05/01 08:54:33;;;;;;;73.88;52.35;;;16.80;57.30;;;;;;4911614;28;95656;-69
2022/05/01 08:56:59;;;;;;;72.70;52.92;;;16.80;57.10;;;;;;4924426;28;95337;-67
2022/05/01 08:59:25;;;;;;;73.40;52.80;;;16.90;57.10;;;;;;4917558;28;97773;-68
2022/05/01 09:01:53;;;;;;;73.13;52.78;;;16.90;57.20;;;;;;4918204;28;96406;-69
2022/05/01 09:04:19;;;;;;;79.50;53.47;;;17.00;57.30;;;;;;4918032;28;98559;-68
2022/05/01 09:06:45;;;;;;;79.30;53.35;;;17.00;57.30;;;;;;4922969;28;95274;-68
2022/05/01 09:09:20;;;;;;;75.13;53.20;;;17.00;57.20;;;;;;4916966;28;98394;-68
2022/05/01 09:14:32;;;;;;;76.45;53.53;;;17.10;57.10;;;;;;4932262;28;94651;-68
2022/05/01 09:17:27;;;;;;;77.95;54.13;;;17.20;57.00;;;;;;4921039;28;96160;-68
2022/05/01 09:20:14;;;;;;;79.57;54.45;;;17.30;56.90;;;;;;4909372;28;95638;-68
2022/05/01 09:22:49;;;;;;;75.53;53.72;;;17.30;56.80;;;;;;4916800;28;95247;-68
2022/05/01 09:25:22;;;;;;;80.90;54.05;;;17.30;56.70;;;;;;4920701;28;96228;-68
2022/05/01 09:27:49;;;;;;;79.22;53.83;;;17.40;56.50;;;;;;4923332;28;95924;-68
2022/05/01 09:30:16;;;;;;;82.85;53.95;;;17.40;56.30;;;;;;4926421;28;95032;-68
2022/05/01 09:32:44;;;;;;;78.55;53.95;;;17.40;56.30;;;;;;4927878;28;95057;-68
2022/05/01 09:35:36;;;;;;;79.30;54.47;;;17.40;56.20;;;;;;4919885;28;96398;-68
2022/05/01 09:38:14;;;;;;;;;;;17.50;56.00;;;;;;4914231;28;96640;-68
2022/05/01 09:40:40;;;;;;;77.13;53.97;;;17.50;55.80;;;;;;4915468;28;95946;-68
2022/05/01 09:43:06;;;;;;;78.15;54.13;;;17.60;55.80;;;;;;4919581;28;96291;-68
2022/05/01 09:45:32;;;;;;;79.35;54.13;;;17.60;55.70;;;;;;4916113;28;96284;-68
2022/05/01 09:48:00;;;;;;;80.68;54.00;;;17.60;55.50;;;;;;4922335;28;96103;-68
2022/05/01 09:50:40;;;;;;;77.20;53.50;;;17.60;55.40;;;;;;4912195;28;98100;-68
2022/05/01 09:53:06;;;;;;;77.57;53.80;;;17.70;55.40;;;;;;4900389;28;96384;-68
2022/05/01 09:55:32;;;;;;;77.72;53.78;;;17.70;55.20;;;;;;4912500;28;103561;-68
2022/05/01 09:58:12;;;;;;;76.47;53.60;;;17.70;55.00;;;;;;4917752;28;95342;-68
2022/05/01 10:00:44;;;;;;;76.55;53.78;;;17.70;55.00;;;;;;4917706;28;100100;-69
2022/05/01 10:03:28;;;;;;;76.85;53.58;;;17.70;54.80;;;;;;4912574;28;96191;-68
2022/05/01 10:05:57;;;;;;;78.05;53.97;;;17.80;54.90;;;;;;4913101;28;95149;-68
2022/05/01 10:08:23;;;;;;;75.63;53.85;;;17.80;54.70;;;;;;4914346;28;100810;-68
2022/05/01 10:10:54;;;;;;;76.78;53.75;;;17.80;54.60;;;;;;4914938;28;96686;-68
2022/05/01 10:13:26;;;;;;;76.05;53.83;;;17.80;54.50;;;;;;4914380;28;94988;-68
2022/05/01 10:15:53;;;;;;;76.18;53.67;;;17.80;54.40;;;;;;4923440;28;94984;-68
2022/05/01 10:18:20;;;;;;;75.68;53.53;;;17.90;54.40;;;;;;4919357;28;95923;-68
2022/05/01 10:20:46;;;;;;;75.85;53.50;;;17.90;54.40;;;;;;4919107;28;97875;-68
2022/05/01 10:23:12;;;;;;;75.18;53.08;;;17.90;55.00;;;;;;4920289;28;95507;-68
2022/05/01 10:25:48;;;;;;;75.75;53.30;;;17.90;54.40;;;;;;4909830;28;94381;-68
2022/05/01 10:28:54;;;;;;;76.30;52.78;;;17.90;54.40;;;;;;4904149;28;98400;-69
2022/05/01 10:34:50;;;;;;;74.32;53.17;;;17.90;54.30;;;;;;4912053;28;101987;-67
2022/05/01 10:37:35;;;;;;;76.70;53.03;;;17.90;54.40;;;;;;4912713;28;97155;-67
2022/05/01 10:40:01;;;;;;;75.85;53.28;;;17.90;54.30;;;;;;4920768;28;95680;-67
2022/05/01 10:42:48;;;;;;;80.40;54.38;;;18.00;54.40;;;;;;4919534;28;95383;-68
2022/05/01 10:45:22;;;;;;;139.35;82.25;;;18.00;55.40;;;;;;4923558;28;95857;-67
2022/05/01 10:47:53;;;;;;;172.55;104.18;;;18.00;56.20;;;;;;4909253;28;96025;-67
2022/05/01 10:50:26;;;;;;;143.47;88.00;;;18.00;57.50;;;;;;4911835;28;96736;-67
2022/05/01 10:53:09;;;;;;;138.25;83.40;;;18.10;55.90;;;;;;4915135;28;95827;-66
2022/05/01 10:55:53;;;;;;;146.93;88.00;;;18.00;55.40;;;;;;4906628;28;97249;-66
2022/05/01 10:58:20;;;;;;;131.60;83.32;;;18.00;55.40;;;;;;4900793;28;95837;-67
2022/05/01 11:00:47;;;;;;;121.22;79.80;;;18.00;55.40;;;;;;4909268;28;97103;-66
2022/05/01 11:03:26;;;;;;;122.20;79.95;;;18.00;55.40;;;;;;4905914;28;99472;-66
2022/05/01 11:06:02;;;;;;;116.80;76.40;;;18.00;55.30;;;;;;4906378;28;96689;-67
2022/05/01 11:08:32;;;;;;;114.95;76.60;;;18.00;55.20;;;;;;4906947;28;100598;-67
2022/05/01 11:11:01;;;;;;;107.30;73.77;;;18.00;55.00;;;;;;4903815;28;101402;-67
2022/05/01 11:13:35;;;;;;;105.57;72.75;;;18.00;54.90;;;;;;4904722;28;99033;-68
2022/05/01 11:16:01;;;;;;;108.47;72.93;;;18.00;54.80;;;;;;4914246;28;97181;-68
2022/05/01 11:18:34;;;;;;;110.18;72.35;;;18.00;54.60;;;;;;4920442;28;95529;-70
2022/05/01 11:21:22;;;;;;;99.43;69.93;;;18.00;54.50;;;;;;4906492;28;95603;-68
2022/05/01 11:23:58;;;;;;;116.47;75.68;;;18.10;54.40;;;;;;4915946;28;97580;-68
2022/05/01 11:26:24;;;;;;;106.05;72.78;;;18.10;54.40;;;;;;4917951;28;96557;-68
2022/05/01 11:28:52;;;;;;;113.45;75.10;;;18.10;54.30;;;;;;4922473;28;95402;-67
2022/05/01 11:31:36;;;;;;;108.78;74.15;;;18.10;54.30;;;;;;4898359;28;97284;-69
2022/05/01 11:34:18;;;;;;;110.05;72.80;;;18.10;54.30;;;;;;4908378;28;95131;-67
2022/05/01 11:36:50;;;;;;;103.43;69.32;;;18.10;54.30;;;;;;4904708;28;100163;-68
2022/05/01 11:39:15;;;;;;;100.07;69.55;;;18.10;54.30;;;;;;4911307;28;96132;-68
2022/05/01 11:41:42;;;;;;;101.15;68.88;;;18.10;54.20;;;;;;4910002;28;101027;-68
2022/05/01 11:44:24;;;;;;;101.90;68.30;;;18.10;54.30;;;;;;4920033;28;97454;-68
2022/05/01 11:46:53;;;;;;;96.88;67.70;;;18.10;54.30;;;;;;4920718;28;97340;-69
2022/05/01 11:49:20;;;;;;;99.18;67.00;;;18.20;54.40;;;;;;4916408;28;100786;-68
2022/05/01 11:51:47;;;;;;;98.10;66.93;;;18.20;54.40;;;;;;4902659;28;96511;-68
2022/05/01 11:54:14;;;;;;;99.10;66.20;;;18.20;54.30;;;;;;4917842;28;95888;-68
2022/05/01 12:02:27;;;;;;;99.20;65.22;;;18.20;54.50;;;;;;4917802;28;98990;-68
2022/05/01 12:05:04;;;;;;;92.18;62.92;;;18.20;54.50;;;;;;4924347;28;95940;-68
2022/05/01 12:07:30;;;;;;;94.72;63.45;;;18.20;54.50;;;;;;4913038;28;95522;-68
2022/05/01 12:09:56;;;;;;;87.95;62.28;;;18.20;54.50;;;;;;4916755;28;96997;-67
2022/05/01 12:12:27;;;;;;;89.78;62.22;;;18.20;54.60;;;;;;4918184;28;96326;-68
2022/05/01 12:14:53;;;;;;;88.10;60.92;;;18.20;54.50;;;;;;4937212;28;100088;-68
2022/05/01 12:17:19;;;;;;;91.30;61.85;;;18.20;54.50;;;;;;4921779;28;96812;-67
2022/05/01 12:19:50;;;;;;;91.80;61.28;;;18.20;54.50;;;;;;4922308;28;95751;-67
2022/05/01 12:22:18;;;;;;;89.65;60.97;;;18.30;54.60;;;;;;4911564;28;97431;-68
2022/05/01 12:24:44;;;;;;;89.05;60.85;;;18.30;54.50;;;;;;4922804;28;95634;-68
2022/05/01 12:27:12;;;;;;;88.57;60.33;;;18.30;54.50;;;;;;4917522;28;96509;-67
2022/05/01 12:29:42;;;;;;;87.57;59.63;;;18.30;54.60;;;;;;4928152;28;95488;-69
2022/05/01 12:32:12;;;;;;;86.25;59.58;;;18.30;54.60;;;;;;4912954;28;99790;-68
2022/05/01 12:35:00;;;;;;;88.85;59.50;;;18.30;54.50;;;;;;4914430;28;99786;-68
2022/05/01 12:37:29;;;;;;;87.05;58.15;;;18.30;54.50;;;;;;4910105;28;95471;-68
2022/05/01 12:40:00;;;;;;;86.28;58.85;;;18.30;54.40;;;;;;4920640;28;102223;-68
2022/05/01 12:45:13;;;;;;;85.18;58.35;;;18.40;54.40;;;;;;4907957;28;96582;-68
2022/05/01 12:47:45;;;;;;;84.30;58.97;;;18.40;54.40;;;;;;4912619;28;98094;-68
2022/05/01 12:50:27;;;;;;;86.97;58.22;;;18.40;54.30;;;;;;4909868;28;99339;-68
2022/05/01 12:52:57;;;;;;;84.47;57.67;;;18.50;54.40;;;;;;4914995;28;96347;-69
2022/05/01 12:55:33;;;;;;;86.03;58.35;;;18.50;54.40;;;;;;4916867;28;95446;-68
2022/05/01 12:58:05;;;;;;;84.03;58.10;;;18.40;54.30;;;;;;4903701;28;100804;-69
2022/05/01 13:00:31;;;;;;;;;;;18.40;54.20;;;;;;4915341;28;96272;-69
2022/05/01 13:03:16;;;;;;;83.20;57.58;;;18.50;54.40;;;;;;4908032;28;96243;-70
2022/05/01 13:05:53;;;;;;;84.32;56.67;;;18.50;54.30;;;;;;4909676;28;96483;-70